sensor_id;sensor_type;location;lat;lon;timestamp;pressure;altitude;pressure_sealevel;temperature;humidity
47712;BME280;57457;51.634;5.886;2023-04-09T00:01:58;102300;;;11.3;81.7
47712;BME280;57457;51.634;5.886;2023-04-09T00:15:18;102300;;;11.3;82.0
47712;BME280;57457;51.634;5.886;2023-04-09T00:28:39;102300;;;11.2;82.1
47712;BME280;57457;51.634;5.886;2023-04-09T00:42:01;102300;;;11.2;82.3
47712;BME280;57457;51.634;5.886;2023-04-09T00:55:21;102300;;;11.1;82.4
47712;BME280;57457;51.634;5.886;2023-04-09T01:08:40;102300;;;11.0;82.5
47712;BME280;57457;51.634;5.886;2023-04-09T01:22:00;102300;;;10.9;82.6
47712;BME280;57457;51.634;5.886;2023-04-09T01:35:20;102200;;;10.8;82.8
47712;BME280;57457;51.634;5.886;2023-04-09T01:48:40;102200;;;10.7;82.8
47712;BME280;57457;51.634;5.886;2023-04-09T02:02:01;102200;;;10.7;82.8
47712;BME280;57457;51.634;5.886;2023-04-09T02:15:23;102200;;;10.6;82.8
47712;BME280;57457;51.634;5.886;2023-04-09T02:28:42;102200;;;10.6;82.6
47712;BME280;57457;51.634;5.886;2023-04-09T02:42:02;102200;;;10.5;82.5
47712;BME280;57457;51.634;5.886;2023-04-09T02:55:22;102200;;;10.4;82.4
47712;BME280;57457;51.634;5.886;2023-04-09T03:08:42;102200;;;10.3;82.4
47712;BME280;57457;51.634;5.886;2023-04-09T03:35:23;102200;;;9.9;82.8
47712;BME280;57457;51.634;5.886;2023-04-09T03:48:43;102200;;;9.6;83.4
47712;BME280;57457;51.634;5.886;2023-04-09T04:02:03;102200;;;9.2;83.8
47712;BME280;57457;51.634;5.886;2023-04-09T04:15:22;102200;;;8.8;84.6
47712;BME280;57457;51.634;5.886;2023-04-09T04:28:42;102200;;;8.4;84.3
47712;BME280;57457;51.634;5.886;2023-04-09T04:42:04;102200;;;8.0;84.6
47712;BME280;57457;51.634;5.886;2023-04-09T04:55:25;102200;;;7.6;85.1
47712;BME280;57457;51.634;5.886;2023-04-09T05:08:46;102200;;;7.2;85.5
47712;BME280;57457;51.634;5.886;2023-04-09T05:22:06;102200;;;6.8;85.9
47712;BME280;57457;51.634;5.886;2023-04-09T05:35:26;102200;;;6.5;86.3
47712;BME280;57457;51.634;5.886;2023-04-09T05:48:47;102200;;;6.4;87.0
47712;BME280;57457;51.634;5.886;2023-04-09T06:02:09;102200;;;6.4;87.4
47712;BME280;57457;51.634;5.886;2023-04-09T06:15:30;102200;;;6.5;87.2
47712;BME280;57457;51.634;5.886;2023-04-09T06:28:50;102200;;;6.9;86.2
47712;BME280;57457;51.634;5.886;2023-04-09T06:42:11;102200;;;7.2;85.3
47712;BME280;57457;51.634;5.886;2023-04-09T06:55:33;102200;;;7.7;83.4
47712;BME280;57457;51.634;5.886;2023-04-09T07:08:54;102200;;;8.4;82.4
47712;BME280;57457;51.634;5.886;2023-04-09T07:22:14;102200;;;8.9;81.9
47712;BME280;57457;51.634;5.886;2023-04-09T07:35:34;102200;;;9.4;81.0
47712;BME280;57457;51.634;5.886;2023-04-09T07:48:55;102200;;;9.8;79.6
47712;BME280;57457;51.634;5.886;2023-04-09T08:02:15;102200;;;10.3;76.9
47712;BME280;57457;51.634;5.886;2023-04-09T08:15:36;102200;;;10.8;74.1
47712;BME280;57457;51.634;5.886;2023-04-09T08:28:56;102200;;;11.6;68.0
47712;BME280;57457;51.634;5.886;2023-04-09T08:42:16;102200;;;12.6;64.5
47712;BME280;57457;51.634;5.886;2023-04-09T08:55:36;102200;;;13.6;59.3
47712;BME280;57457;51.634;5.886;2023-04-09T09:08:57;102200;;;14.4;57.5
47712;BME280;57457;51.634;5.886;2023-04-09T09:22:18;102200;;;15.3;57.5
47712;BME280;57457;51.634;5.886;2023-04-09T09:35:38;102200;;;16.2;56.8
47712;BME280;57457;51.634;5.886;2023-04-09T09:48:59;102200;;;16.7;52.1
47712;BME280;57457;51.634;5.886;2023-04-09T10:02:21;102200;;;16.9;50.9
47712;BME280;57457;51.634;5.886;2023-04-09T10:15:41;102200;;;17.2;51.7
47712;BME280;57457;51.634;5.886;2023-04-09T10:29:02;102200;;;17.6;48.1
47712;BME280;57457;51.634;5.886;2023-04-09T10:42:22;102200;;;17.9;48.8
47712;BME280;57457;51.634;5.886;2023-04-09T10:55:42;102200;;;18.2;45.8
47712;BME280;57457;51.634;5.886;2023-04-09T11:09:01;102100;;;18.7;45.7
47712;BME280;57457;51.634;5.886;2023-04-09T11:22:23;102100;;;18.9;47.1
47712;BME280;57457;51.634;5.886;2023-04-09T11:35:44;102100;;;19.2;45.9
47712;BME280;57457;51.634;5.886;2023-04-09T11:49:05;102100;;;18.8;47.8
47712;BME280;57457;51.634;5.886;2023-04-09T12:15:46;102100;;;19.3;47.1
47712;BME280;57457;51.634;5.886;2023-04-09T12:29:08;102100;;;19.4;45.7
47712;BME280;57457;51.634;5.886;2023-04-09T12:42:29;102100;;;19.5;46.5
47712;BME280;57457;51.634;5.886;2023-04-09T12:55:51;102100;;;19.7;47.2
47712;BME280;57457;51.634;5.886;2023-04-09T13:09:10;102100;;;19.5;48.6
47712;BME280;57457;51.634;5.886;2023-04-09T13:22:32;102100;;;19.1;52.2
47712;BME280;57457;51.634;5.886;2023-04-09T13:35:53;102100;;;18.7;49.7
47712;BME280;57457;51.634;5.886;2023-04-09T13:49:13;102100;;;18.5;50.5
47712;BME280;57457;51.634;5.886;2023-04-09T14:02:34;102100;;;18.5;49.0
47712;BME280;57457;51.634;5.886;2023-04-09T14:15:54;102100;;;18.2;50.0
47712;BME280;57457;51.634;5.886;2023-04-09T14:29:16;102000;;;18.1;51.2
47712;BME280;57457;51.634;5.886;2023-04-09T14:42:37;102000;;;18.1;45.8
47712;BME280;57457;51.634;5.886;2023-04-09T14:55:58;102000;;;18.7;42.3
47712;BME280;57457;51.634;5.886;2023-04-09T15:09:20;102000;;;19.6;39.6
47712;BME280;57457;51.634;5.886;2023-04-09T15:22:40;102000;;;20.2;41.8
47712;BME280;57457;51.634;5.886;2023-04-09T15:35:59;102000;;;20.6;42.5
47712;BME280;57457;51.634;5.886;2023-04-09T15:49:21;102000;;;20.8;41.7
47712;BME280;57457;51.634;5.886;2023-04-09T16:02:41;102000;;;20.7;45.6
47712;BME280;57457;51.634;5.886;2023-04-09T16:16:02;101900;;;20.0;44.2
47712;BME280;57457;51.634;5.886;2023-04-09T16:29:22;101900;;;19.7;44.7
47712;BME280;57457;51.634;5.886;2023-04-09T16:42:42;101900;;;19.3;45.4
47712;BME280;57457;51.634;5.886;2023-04-09T17:09:23;101900;;;18.5;50.6
47712;BME280;57457;51.634;5.886;2023-04-09T17:22:44;101900;;;18.1;51.2
47712;BME280;57457;51.634;5.886;2023-04-09T17:36:04;101900;;;17.9;52.6
47712;BME280;57457;51.634;5.886;2023-04-09T17:49:24;101900;;;17.3;55.7
47712;BME280;57457;51.634;5.886;2023-04-09T18:02:43;101900;;;16.6;57.8
47712;BME280;57457;51.634;5.886;2023-04-09T18:16:03;101900;;;15.8;60.3
47712;BME280;57457;51.634;5.886;2023-04-09T18:29:25;101900;;;14.9;63.2
47712;BME280;57457;51.634;5.886;2023-04-09T18:42:46;101900;;;14.0;64.8
47712;BME280;57457;51.634;5.886;2023-04-09T18:56:06;101900;;;13.2;67.8
47712;BME280;57457;51.634;5.886;2023-04-09T19:09:26;101900;;;12.5;68.9
47712;BME280;57457;51.634;5.886;2023-04-09T19:36:09;101900;;;11.2;71.0
47712;BME280;57457;51.634;5.886;2023-04-09T19:49:30;101900;;;10.7;72.8
47712;BME280;57457;51.634;5.886;2023-04-09T20:02:50;101900;;;10.3;74.4
47712;BME280;57457;51.634;5.886;2023-04-09T20:16:11;101900;;;10.0;74.8
47712;BME280;57457;51.634;5.886;2023-04-09T20:29:31;101900;;;9.7;75.6
47712;BME280;57457;51.634;5.886;2023-04-09T20:42:52;101900;;;9.4;76.8
47712;BME280;57457;51.634;5.886;2023-04-09T20:56:14;101900;;;9.1;76.0
47712;BME280;57457;51.634;5.886;2023-04-09T21:09:33;101900;;;9.0;75.5
47712;BME280;57457;51.634;5.886;2023-04-09T21:22:53;101900;;;9.0;75.0
47712;BME280;57457;51.634;5.886;2023-04-09T21:36:15;101900;;;9.0;75.1
47712;BME280;57457;51.634;5.886;2023-04-09T21:49:36;101900;;;8.9;75.7
47712;BME280;57457;51.634;5.886;2023-04-09T22:02:56;101900;;;8.8;76.7
47712;BME280;57457;51.634;5.886;2023-04-09T22:43:00;101900;;;8.7;75.8
47712;BME280;57457;51.634;5.886;2023-04-09T22:56:21;101900;;;8.8;76.2
47712;BME280;57457;51.634;5.886;2023-04-09T23:09:41;101900;;;8.7;76.9
47712;BME280;57457;51.634;5.886;2023-04-09T23:23:03;101900;;;8.7;76.4
47712;BME280;57457;51.634;5.886;2023-04-09T23:36:22;101900;;;8.8;75.5
47712;BME280;57457;51.634;5.886;2023-04-09T23:49:44;101900;;;8.9;74.2
